sensor_id;sensor_type;location;lat;lon;timestamp;pressure;altitude;pressure_sealevel;temperature;humidity
40315;BME280;26021;45.640;11.302;2023-07-31T00:01:13;98431.09;;;22.09;100.00
40315;BME280;26021;45.640;11.302;2023-07-31T00:03:39;98548.81;;;22.85;100.00
40315;BME280;26021;45.640;11.302;2023-07-31T00:06:04;98533.81;;;22.82;100.00
40315;BME280;26021;45.640;11.302;2023-07-31T00:08:30;98538.53;;;22.97;100.00
40315;BME280;26021;45.640;11.302;2023-07-31T00:10:55;98531.44;;;22.96;100.00
40315;BME280;26021;45.640;11.302;2023-07-31T00:13:20;98529.25;;;22.98;100.00
40315;BME280;26021;45.640;11.302;2023-07-31T00:15:46;98532.03;;;23.03;100.00
40315;BME280;26021;45.640;11.302;2023-07-31T00:18:11;98544.47;;;22.84;100.00
40315;BME280;26021;45.640;11.302;2023-07-31T00:20:36;98494.06;;;22.49;100.00
40315;BME280;26021;45.640;11.302;2023-07-31T00:23:02;98527.38;;;22.62;100.00
40315;BME280;26021;45.640;11.302;2023-07-31T00:25:27;98443.56;;;22.37;100.00
40315;BME280;26021;45.640;11.302;2023-07-31T00:27:53;98532.50;;;22.90;100.00
40315;BME280;26021;45.640;11.302;2023-07-31T00:30:18;98511.59;;;22.64;100.00
40315;BME280;26021;45.640;11.302;2023-07-31T00:32:44;98543.63;;;22.83;100.00
40315;BME280;26021;45.640;11.302;2023-07-31T00:35:09;98554.69;;;22.67;100.00
40315;BME280;26021;45.640;11.302;2023-07-31T00:37:34;98552.63;;;22.84;100.00
40315;BME280;26021;45.640;11.302;2023-07-31T00:40:00;98547.31;;;22.67;100.00
40315;BME280;26021;45.640;11.302;2023-07-31T00:42:25;98557.38;;;22.62;100.00
40315;BME280;26021;45.640;11.302;2023-07-31T00:44:51;98559.31;;;22.66;100.00
40315;BME280;26021;45.640;11.302;2023-07-31T00:47:16;98550.69;;;22.42;100.00
40315;BME280;26021;45.640;11.302;2023-07-31T00:49:42;98557.78;;;22.43;100.00
40315;BME280;26021;45.640;11.302;2023-07-31T00:52:09;98561.31;;;22.44;100.00
40315;BME280;26021;45.640;11.302;2023-07-31T00:54:34;98557.91;;;22.59;100.00
40315;BME280;26021;45.640;11.302;2023-07-31T00:57:00;98555.78;;;22.71;100.00
40315;BME280;26021;45.640;11.302;2023-07-31T00:59:25;98526.47;;;22.46;100.00
40315;BME280;26021;45.640;11.302;2023-07-31T01:01:50;98549.72;;;22.59;100.00
40315;BME280;26021;45.640;11.302;2023-07-31T01:04:17;98446.56;;;22.03;100.00
40315;BME280;26021;45.640;11.302;2023-07-31T01:11:56;98547.44;;;22.45;100.00
40315;BME280;26021;45.640;11.302;2023-07-31T01:14:22;98532.88;;;22.30;100.00
40315;BME280;26021;45.640;11.302;2023-07-31T01:16:47;98545.88;;;22.23;100.00
40315;BME280;26021;45.640;11.302;2023-07-31T01:19:14;98547.75;;;22.22;100.00
40315;BME280;26021;45.640;11.302;2023-07-31T01:22:04;98549.56;;;22.38;100.00
40315;BME280;26021;45.640;11.302;2023-07-31T01:24:55;98547.19;;;22.47;100.00
40315;BME280;26021;45.640;11.302;2023-07-31T01:27:34;98502.75;;;22.14;100.00
40315;BME280;26021;45.640;11.302;2023-07-31T01:30:06;98541.69;;;22.42;100.00
40315;BME280;26021;45.640;11.302;2023-07-31T01:32:36;98541.06;;;22.30;100.00
40315;BME280;26021;45.640;11.302;2023-07-31T01:35:05;98533.81;;;22.13;100.00
40315;BME280;26021;45.640;11.302;2023-07-31T01:37:31;98492.41;;;21.84;100.00
40315;BME280;26021;45.640;11.302;2023-07-31T01:39:56;98548.16;;;22.04;100.00
40315;BME280;26021;45.640;11.302;2023-07-31T01:42:21;98546.16;;;21.99;100.00
40315;BME280;26021;45.640;11.302;2023-07-31T01:44:47;98538.16;;;22.14;100.00
40315;BME280;26021;45.640;11.302;2023-07-31T01:47:12;98529.47;;;22.17;100.00
40315;BME280;26021;45.640;11.302;2023-07-31T01:49:38;98531.34;;;22.12;100.00
40315;BME280;26021;45.640;11.302;2023-07-31T01:52:03;98526.91;;;22.33;100.00
40315;BME280;26021;45.640;11.302;2023-07-31T01:54:29;98496.41;;;22.04;100.00
40315;BME280;26021;45.640;11.302;2023-07-31T01:56:54;98508.78;;;21.89;100.00
40315;BME280;26021;45.640;11.302;2023-07-31T01:59:20;98526.03;;;22.00;100.00
40315;BME280;26021;45.640;11.302;2023-07-31T02:01:45;98493.38;;;21.73;100.00
40315;BME280;26021;45.640;11.302;2023-07-31T02:04:10;98521.47;;;22.06;100.00
40315;BME280;26021;45.640;11.302;2023-07-31T02:06:36;98471.09;;;21.76;100.00
40315;BME280;26021;45.640;11.302;2023-07-31T02:09:02;98443.47;;;21.63;100.00
40315;BME280;26021;45.640;11.302;2023-07-31T02:11:28;98430.81;;;21.51;100.00
40315;BME280;26021;45.640;11.302;2023-07-31T02:13:54;98522.59;;;22.10;100.00
40315;BME280;26021;45.640;11.302;2023-07-31T02:16:19;98514.22;;;21.89;100.00
40315;BME280;26021;45.640;11.302;2023-07-31T02:18:44;98516.34;;;21.82;100.00
40315;BME280;26021;45.640;11.302;2023-07-31T02:21:10;98520.19;;;21.86;100.00
40315;BME280;26021;45.640;11.302;2023-07-31T02:23:35;98526.97;;;21.84;100.00
40315;BME280;26021;45.640;11.302;2023-07-31T02:26:01;98502.78;;;21.61;100.00
40315;BME280;26021;45.640;11.302;2023-07-31T02:28:26;98517.09;;;21.78;100.00
40315;BME280;26021;45.640;11.302;2023-07-31T02:30:51;98519.63;;;21.84;100.00
40315;BME280;26021;45.640;11.302;2023-07-31T02:33:17;98519.56;;;21.79;100.00
40315;BME280;26021;45.640;11.302;2023-07-31T02:35:42;98517.31;;;21.71;100.00
40315;BME280;26021;45.640;11.302;2023-07-31T02:38:08;98516.38;;;21.87;100.00
40315;BME280;26021;45.640;11.302;2023-07-31T02:40:33;98517.09;;;21.78;100.00
40315;BME280;26021;45.640;11.302;2023-07-31T02:42:59;98430.50;;;21.21;100.00
40315;BME280;26021;45.640;11.302;2023-07-31T02:45:24;98498.97;;;21.62;100.00
40315;BME280;26021;45.640;11.302;2023-07-31T02:47:50;98497.94;;;21.68;100.00
40315;BME280;26021;45.640;11.302;2023-07-31T02:50:15;98506.69;;;21.70;100.00
40315;BME280;26021;45.640;11.302;2023-07-31T02:52:40;98510.44;;;21.64;100.00
40315;BME280;26021;45.640;11.302;2023-07-31T02:55:06;98376.91;;;20.73;100.00
40315;BME280;26021;45.640;11.302;2023-07-31T02:57:32;98499.88;;;21.45;100.00
40315;BME280;26021;45.640;11.302;2023-07-31T02:59:57;98506.28;;;21.56;100.00
40315;BME280;26021;45.640;11.302;2023-07-31T03:02:22;98467.63;;;21.10;100.00
40315;BME280;26021;45.640;11.302;2023-07-31T03:04:48;98511.78;;;21.39;100.00
40315;BME280;26021;45.640;11.302;2023-07-31T03:07:13;98357.06;;;20.50;100.00
40315;BME280;26021;45.640;11.302;2023-07-31T03:09:39;98514.34;;;21.51;100.00
40315;BME280;26021;45.640;11.302;2023-07-31T03:12:04;98506.59;;;21.38;100.00
40315;BME280;26021;45.640;11.302;2023-07-31T03:14:30;98500.38;;;21.42;100.00
40315;BME280;26021;45.640;11.302;2023-07-31T03:16:55;98449.41;;;21.11;100.00
40315;BME280;26021;45.640;11.302;2023-07-31T03:19:20;98506.91;;;21.41;100.00
40315;BME280;26021;45.640;11.302;2023-07-31T03:21:46;98506.53;;;21.33;100.00
40315;BME280;26021;45.640;11.302;2023-07-31T03:24:11;98350.59;;;20.35;100.00
40315;BME280;26021;45.640;11.302;2023-07-31T03:26:40;98505.75;;;21.15;100.00
40315;BME280;26021;45.640;11.302;2023-07-31T03:29:07;98508.47;;;21.15;100.00
40315;BME280;26021;45.640;11.302;2023-07-31T03:31:32;98454.81;;;20.84;100.00
40315;BME280;26021;45.640;11.302;2023-07-31T03:33:58;98448.13;;;20.75;100.00
40315;BME280;26021;45.640;11.302;2023-07-31T03:36:23;98490.13;;;21.06;100.00
40315;BME280;26021;45.640;11.302;2023-07-31T03:38:49;98512.59;;;21.18;100.00
40315;BME280;26021;45.640;11.302;2023-07-31T03:41:14;98484.13;;;21.04;100.00
40315;BME280;26021;45.640;11.302;2023-07-31T03:43:39;98446.72;;;20.89;100.00
40315;BME280;26021;45.640;11.302;2023-07-31T03:46:05;98509.34;;;21.21;100.00
40315;BME280;26021;45.640;11.302;2023-07-31T03:48:30;98407.56;;;20.68;100.00
40315;BME280;26021;45.640;11.302;2023-07-31T03:50:56;98512.78;;;21.33;100.00
40315;BME280;26021;45.640;11.302;2023-07-31T03:53:21;98520.38;;;21.31;100.00
40315;BME280;26021;45.640;11.302;2023-07-31T03:55:46;98457.13;;;20.97;100.00
40315;BME280;26021;45.640;11.302;2023-07-31T03:58:12;98435.53;;;20.85;100.00
40315;BME280;26021;45.640;11.302;2023-07-31T04:00:39;98522.41;;;21.41;100.00
40315;BME280;26021;45.640;11.302;2023-07-31T04:03:04;98520.63;;;21.30;100.00
40315;BME280;26021;45.640;11.302;2023-07-31T04:05:31;98522.53;;;21.29;100.00
40315;BME280;26021;45.640;11.302;2023-07-31T04:07:57;98520.69;;;21.35;100.00
40315;BME280;26021;45.640;11.302;2023-07-31T04:10:22;98444.63;;;20.96;100.00
40315;BME280;26021;45.640;11.302;2023-07-31T04:12:48;98519.88;;;21.34;100.00
40315;BME280;26021;45.640;11.302;2023-07-31T04:15:13;98528.91;;;21.40;100.00
40315;BME280;26021;45.640;11.302;2023-07-31T04:17:39;98498.72;;;21.19;100.00
40315;BME280;26021;45.640;11.302;2023-07-31T04:20:05;98497.91;;;21.19;100.00
40315;BME280;26021;45.640;11.302;2023-07-31T04:22:30;98518.78;;;21.13;100.00
40315;BME280;26021;45.640;11.302;2023-07-31T04:24:56;98531.31;;;21.36;100.00
40315;BME280;26021;45.640;11.302;2023-07-31T04:27:21;98453.22;;;20.88;100.00
40315;BME280;26021;45.640;11.302;2023-07-31T04:29:47;98469.78;;;21.30;100.00
40315;BME280;26021;45.640;11.302;2023-07-31T04:32:13;98522.97;;;21.65;100.00
40315;BME280;26021;45.640;11.302;2023-07-31T04:34:38;98520.56;;;21.46;100.00
40315;BME280;26021;45.640;11.302;2023-07-31T04:37:04;98507.97;;;21.40;100.00
40315;BME280;26021;45.640;11.302;2023-07-31T04:39:29;98489.56;;;21.47;100.00
40315;BME280;26021;45.640;11.302;2023-07-31T04:41:54;98471.06;;;21.22;100.00
40315;BME280;26021;45.640;11.302;2023-07-31T04:44:20;98511.63;;;21.51;100.00
40315;BME280;26021;45.640;11.302;2023-07-31T04:46:45;98517.78;;;21.63;100.00
40315;BME280;26021;45.640;11.302;2023-07-31T04:49:11;98534.97;;;21.69;100.00
40315;BME280;26021;45.640;11.302;2023-07-31T04:51:37;98531.34;;;21.58;100.00
40315;BME280;26021;45.640;11.302;2023-07-31T04:54:02;98483.63;;;21.29;100.00
40315;BME280;26021;45.640;11.302;2023-07-31T04:56:28;98527.06;;;21.45;100.00
40315;BME280;26021;45.640;11.302;2023-07-31T04:58:54;98535.94;;;21.58;100.00
40315;BME280;26021;45.640;11.302;2023-07-31T05:01:20;98457.13;;;20.97;100.00
40315;BME280;26021;45.640;11.302;2023-07-31T05:03:45;98536.63;;;21.70;100.00
40315;BME280;26021;45.640;11.302;2023-07-31T05:06:11;98537.28;;;21.82;100.00
40315;BME280;26021;45.640;11.302;2023-07-31T05:08:37;98539.91;;;21.72;100.00
40315;BME280;26021;45.640;11.302;2023-07-31T05:11:02;98526.56;;;21.70;100.00
40315;BME280;26021;45.640;11.302;2023-07-31T05:13:28;98533.38;;;21.73;100.00
40315;BME280;26021;45.640;11.302;2023-07-31T05:15:53;98513.81;;;21.76;100.00
40315;BME280;26021;45.640;11.302;2023-07-31T05:18:19;98525.06;;;21.84;100.00
40315;BME280;26021;45.640;11.302;2023-07-31T05:20:44;98489.16;;;21.87;100.00
40315;BME280;26021;45.640;11.302;2023-07-31T05:23:09;98545.75;;;22.39;100.00
40315;BME280;26021;45.640;11.302;2023-07-31T05:25:35;98546.56;;;22.40;100.00
40315;BME280;26021;45.640;11.302;2023-07-31T05:28:00;98555.91;;;22.49;100.00
40315;BME280;26021;45.640;11.302;2023-07-31T05:30:26;98503.13;;;22.28;100.00
40315;BME280;26021;45.640;11.302;2023-07-31T05:32:52;98552.84;;;22.77;100.00
40315;BME280;26021;45.640;11.302;2023-07-31T05:35:18;98516.00;;;22.70;100.00
40315;BME280;26021;45.640;11.302;2023-07-31T05:37:43;98552.19;;;23.02;100.00
40315;BME280;26021;45.640;11.302;2023-07-31T05:40:09;98556.56;;;23.03;100.00
40315;BME280;26021;45.640;11.302;2023-07-31T05:42:34;98433.56;;;22.10;100.00
40315;BME280;26021;45.640;11.302;2023-07-31T05:45:01;98459.72;;;22.48;100.00
40315;BME280;26021;45.640;11.302;2023-07-31T05:47:27;98557.31;;;23.41;100.00
40315;BME280;26021;45.640;11.302;2023-07-31T05:49:52;98498.44;;;22.98;100.00
40315;BME280;26021;45.640;11.302;2023-07-31T05:52:19;98564.94;;;23.39;100.00
40315;BME280;26021;45.640;11.302;2023-07-31T05:54:44;98560.13;;;23.61;100.00
40315;BME280;26021;45.640;11.302;2023-07-31T05:57:11;98519.19;;;23.61;100.00
40315;BME280;26021;45.640;11.302;2023-07-31T05:59:36;98340.97;;;22.68;100.00
40315;BME280;26021;45.640;11.302;2023-07-31T06:02:02;98487.81;;;23.64;100.00
40315;BME280;26021;45.640;11.302;2023-07-31T06:04:27;98488.78;;;23.27;100.00
40315;BME280;26021;45.640;11.302;2023-07-31T06:06:53;98540.31;;;23.96;100.00
40315;BME280;26021;45.640;11.302;2023-07-31T06:09:18;98510.00;;;24.03;100.00
40315;BME280;26021;45.640;11.302;2023-07-31T06:11:45;98475.84;;;24.00;100.00
40315;BME280;26021;45.640;11.302;2023-07-31T06:14:11;98543.66;;;24.54;100.00
40315;BME280;26021;45.640;11.302;2023-07-31T06:16:36;98510.31;;;24.57;100.00
40315;BME280;26021;45.640;11.302;2023-07-31T06:19:01;98514.13;;;24.66;100.00
40315;BME280;26021;45.640;11.302;2023-07-31T06:21:27;98442.78;;;24.12;100.00
40315;BME280;26021;45.640;11.302;2023-07-31T06:23:52;98570.38;;;25.18;100.00
40315;BME280;26021;45.640;11.302;2023-07-31T06:26:18;98563.75;;;25.40;100.00
40315;BME280;26021;45.640;11.302;2023-07-31T06:28:43;98578.31;;;25.10;100.00
40315;BME280;26021;45.640;11.302;2023-07-31T06:31:09;98567.38;;;25.05;100.00
40315;BME280;26021;45.640;11.302;2023-07-31T06:33:34;98570.63;;;25.22;100.00
40315;BME280;26021;45.640;11.302;2023-07-31T06:36:00;98400.16;;;24.11;100.00
40315;BME280;26021;45.640;11.302;2023-07-31T06:38:26;98572.44;;;25.52;100.00
40315;BME280;26021;45.640;11.302;2023-07-31T06:40:52;98570.72;;;25.76;100.00
40315;BME280;26021;45.640;11.302;2023-07-31T06:43:18;98560.97;;;25.99;100.00
40315;BME280;26021;45.640;11.302;2023-07-31T06:45:43;98574.13;;;26.07;100.00
40315;BME280;26021;45.640;11.302;2023-07-31T06:48:09;98540.84;;;25.80;100.00
40315;BME280;26021;45.640;11.302;2023-07-31T06:50:35;98545.19;;;25.86;100.00
40315;BME280;26021;45.640;11.302;2023-07-31T06:53:00;98464.38;;;25.39;100.00
40315;BME280;26021;45.640;11.302;2023-07-31T06:55:26;98582.06;;;26.09;100.00
40315;BME280;26021;45.640;11.302;2023-07-31T06:57:54;98582.44;;;26.36;100.00
40315;BME280;26021;45.640;11.302;2023-07-31T07:00:21;98547.09;;;26.29;100.00
40315;BME280;26021;45.640;11.302;2023-07-31T07:02:47;98597.47;;;26.73;100.00
40315;BME280;26021;45.640;11.302;2023-07-31T07:05:16;98601.41;;;26.62;100.00
40315;BME280;26021;45.640;11.302;2023-07-31T07:07:42;98602.84;;;26.88;98.56
40315;BME280;26021;45.640;11.302;2023-07-31T07:10:08;98598.09;;;27.51;93.64
40315;BME280;26021;45.640;11.302;2023-07-31T07:12:34;98528.63;;;27.27;92.33
40315;BME280;26021;45.640;11.302;2023-07-31T07:15:00;98599.16;;;27.56;77.46
40315;BME280;26021;45.640;11.302;2023-07-31T07:17:27;98534.28;;;27.36;77.17
40315;BME280;26021;45.640;11.302;2023-07-31T07:19:53;98577.69;;;27.58;75.80
40315;BME280;26021;45.640;11.302;2023-07-31T07:22:18;98437.16;;;26.84;72.09
40315;BME280;26021;45.640;11.302;2023-07-31T07:24:44;98547.03;;;27.03;68.31
40315;BME280;26021;45.640;11.302;2023-07-31T07:27:10;98593.47;;;27.23;72.30
40315;BME280;26021;45.640;11.302;2023-07-31T07:29:35;98593.97;;;27.49;70.23
40315;BME280;26021;45.640;11.302;2023-07-31T07:32:01;98567.28;;;27.07;70.96
40315;BME280;26021;45.640;11.302;2023-07-31T07:34:27;98569.63;;;27.18;70.99
40315;BME280;26021;45.640;11.302;2023-07-31T07:36:53;98494.81;;;27.08;71.84
40315;BME280;26021;45.640;11.302;2023-07-31T07:39:19;98579.69;;;27.28;71.73
40315;BME280;26021;45.640;11.302;2023-07-31T07:41:45;98590.59;;;27.33;72.55
40315;BME280;26021;45.640;11.302;2023-07-31T07:44:11;98570.31;;;27.05;70.03
40315;BME280;26021;45.640;11.302;2023-07-31T07:46:36;98587.97;;;26.99;71.82
40315;BME280;26021;45.640;11.302;2023-07-31T07:49:03;98589.81;;;26.70;74.30
40315;BME280;26021;45.640;11.302;2023-07-31T07:51:28;98537.75;;;26.65;74.43
40315;BME280;26021;45.640;11.302;2023-07-31T07:53:55;98593.44;;;26.99;74.20
40315;BME280;26021;45.640;11.302;2023-07-31T07:56:21;98593.63;;;27.08;73.51
40315;BME280;26021;45.640;11.302;2023-07-31T07:58:50;98525.06;;;26.45;74.53
40315;BME280;26021;45.640;11.302;2023-07-31T08:01:16;98593.34;;;27.09;75.14
40315;BME280;26021;45.640;11.302;2023-07-31T08:03:41;98593.19;;;26.96;74.61
40315;BME280;26021;45.640;11.302;2023-07-31T08:06:07;98566.31;;;27.21;71.83
40315;BME280;26021;45.640;11.302;2023-07-31T08:08:37;98502.69;;;27.14;74.26
40315;BME280;26021;45.640;11.302;2023-07-31T08:11:03;98573.69;;;27.50;73.08
40315;BME280;26021;45.640;11.302;2023-07-31T08:13:28;98582.88;;;27.35;69.95
40315;BME280;26021;45.640;11.302;2023-07-31T08:15:54;98574.31;;;27.18;74.99
40315;BME280;26021;45.640;11.302;2023-07-31T08:18:20;98541.66;;;27.16;74.21
40315;BME280;26021;45.640;11.302;2023-07-31T08:20:45;98451.44;;;26.57;72.44
40315;BME280;26021;45.640;11.302;2023-07-31T08:23:11;98567.63;;;27.48;70.76
40315;BME280;26021;45.640;11.302;2023-07-31T08:25:36;98561.28;;;27.52;71.31
40315;BME280;26021;45.640;11.302;2023-07-31T08:28:05;98540.78;;;26.92;74.09
40315;BME280;26021;45.640;11.302;2023-07-31T08:30:31;98570.16;;;26.91;73.37
40315;BME280;26021;45.640;11.302;2023-07-31T08:32:58;98587.22;;;26.88;73.87
40315;BME280;26021;45.640;11.302;2023-07-31T08:35:24;98582.88;;;26.82;76.65
40315;BME280;26021;45.640;11.302;2023-07-31T08:37:50;98594.69;;;27.36;71.85
40315;BME280;26021;45.640;11.302;2023-07-31T08:40:15;98587.78;;;27.14;74.49
40315;BME280;26021;45.640;11.302;2023-07-31T08:42:45;98554.00;;;26.90;72.03
40315;BME280;26021;45.640;11.302;2023-07-31T08:45:14;98566.53;;;27.01;72.97
40315;BME280;26021;45.640;11.302;2023-07-31T08:47:45;98584.53;;;27.12;71.66
40315;BME280;26021;45.640;11.302;2023-07-31T08:50:16;98587.56;;;27.35;73.75
40315;BME280;26021;45.640;11.302;2023-07-31T08:52:41;98524.66;;;27.14;71.29
40315;BME280;26021;45.640;11.302;2023-07-31T08:55:07;98595.50;;;27.36;71.42
40315;BME280;26021;45.640;11.302;2023-07-31T08:57:37;98602.63;;;26.84;72.89
40315;BME280;26021;45.640;11.302;2023-07-31T09:00:07;98542.22;;;26.55;74.17
40315;BME280;26021;45.640;11.302;2023-07-31T09:02:58;98585.00;;;27.19;73.03
40315;BME280;26021;45.640;11.302;2023-07-31T09:05:26;98586.88;;;27.24;72.83
40315;BME280;26021;45.640;11.302;2023-07-31T09:07:51;98592.13;;;27.20;73.80
40315;BME280;26021;45.640;11.302;2023-07-31T09:10:17;98586.78;;;27.05;72.27
40315;BME280;26021;45.640;11.302;2023-07-31T09:12:44;98543.06;;;26.85;74.10
40315;BME280;26021;45.640;11.302;2023-07-31T09:15:11;98588.97;;;27.32;78.92
40315;BME280;26021;45.640;11.302;2023-07-31T09:17:36;98580.72;;;27.32;78.68
40315;BME280;26021;45.640;11.302;2023-07-31T09:20:13;98575.19;;;27.37;75.94
40315;BME280;26021;45.640;11.302;2023-07-31T09:22:40;98571.97;;;27.54;75.74
40315;BME280;26021;45.640;11.302;2023-07-31T09:25:21;98579.31;;;27.64;73.87
40315;BME280;26021;45.640;11.302;2023-07-31T09:27:50;98554.31;;;27.36;73.15
40315;BME280;26021;45.640;11.302;2023-07-31T09:30:17;98565.59;;;27.11;71.99
40315;BME280;26021;45.640;11.302;2023-07-31T09:32:46;98564.50;;;27.12;73.85
40315;BME280;26021;45.640;11.302;2023-07-31T09:37:39;98558.34;;;27.44;70.47
40315;BME280;26021;45.640;11.302;2023-07-31T09:40:04;98552.91;;;27.39;70.33
40315;BME280;26021;45.640;11.302;2023-07-31T09:42:30;98544.81;;;27.29;70.85
40315;BME280;26021;45.640;11.302;2023-07-31T09:45:07;98545.50;;;27.63;71.40
40315;BME280;26021;45.640;11.302;2023-07-31T09:47:34;98547.34;;;27.44;73.19
40315;BME280;26021;45.640;11.302;2023-07-31T09:49:59;98543.63;;;27.59;71.61
40315;BME280;26021;45.640;11.302;2023-07-31T09:52:26;98534.75;;;27.19;70.73
40315;BME280;26021;45.640;11.302;2023-07-31T09:54:52;98493.22;;;26.78;70.48
40315;BME280;26021;45.640;11.302;2023-07-31T09:57:20;98527.81;;;27.03;72.69
40315;BME280;26021;45.640;11.302;2023-07-31T09:59:48;98536.44;;;27.39;73.18
40315;BME280;26021;45.640;11.302;2023-07-31T10:02:21;98537.09;;;27.54;71.92
40315;BME280;26021;45.640;11.302;2023-07-31T10:04:49;98540.25;;;27.67;67.40
40315;BME280;26021;45.640;11.302;2023-07-31T10:07:17;98547.28;;;27.49;67.30
40315;BME280;26021;45.640;11.302;2023-07-31T10:09:44;98538.44;;;27.57;69.33
40315;BME280;26021;45.640;11.302;2023-07-31T10:12:12;98533.97;;;27.37;70.16
40315;BME280;26021;45.640;11.302;2023-07-31T10:14:41;98550.34;;;27.71;70.37
40315;BME280;26021;45.640;11.302;2023-07-31T10:17:08;98515.00;;;26.93;65.86
40315;BME280;26021;45.640;11.302;2023-07-31T10:19:34;98549.72;;;26.79;68.37
40315;BME280;26021;45.640;11.302;2023-07-31T10:22:00;98535.38;;;26.87;67.33
40315;BME280;26021;45.640;11.302;2023-07-31T10:24:27;98511.88;;;26.76;70.72
40315;BME280;26021;45.640;11.302;2023-07-31T10:26:57;98540.31;;;27.14;66.11
40315;BME280;26021;45.640;11.302;2023-07-31T10:29:25;98552.09;;;27.38;66.35
40315;BME280;26021;45.640;11.302;2023-07-31T10:31:51;98542.00;;;27.58;67.44
40315;BME280;26021;45.640;11.302;2023-07-31T10:34:17;98541.75;;;27.54;66.86
40315;BME280;26021;45.640;11.302;2023-07-31T10:36:43;98502.00;;;27.46;66.99
40315;BME280;26021;45.640;11.302;2023-07-31T10:39:34;98516.25;;;27.48;68.73
40315;BME280;26021;45.640;11.302;2023-07-31T10:42:09;98504.81;;;27.41;66.61
40315;BME280;26021;45.640;11.302;2023-07-31T10:44:35;98527.16;;;27.35;69.13
40315;BME280;26021;45.640;11.302;2023-07-31T10:47:00;98510.63;;;27.64;67.07
40315;BME280;26021;45.640;11.302;2023-07-31T10:49:29;98521.53;;;27.88;70.66
40315;BME280;26021;45.640;11.302;2023-07-31T10:51:56;98513.66;;;27.62;68.05
40315;BME280;26021;45.640;11.302;2023-07-31T10:54:22;98506.16;;;27.44;69.70
40315;BME280;26021;45.640;11.302;2023-07-31T10:56:50;98518.94;;;27.77;72.35
40315;BME280;26021;45.640;11.302;2023-07-31T10:59:15;98525.53;;;27.76;71.25
40315;BME280;26021;45.640;11.302;2023-07-31T11:01:53;98519.16;;;27.81;68.05
40315;BME280;26021;45.640;11.302;2023-07-31T11:04:23;98511.88;;;27.71;70.97
40315;BME280;26021;45.640;11.302;2023-07-31T11:06:59;98521.72;;;27.53;74.33
40315;BME280;26021;45.640;11.302;2023-07-31T11:09:32;98491.69;;;27.62;72.19
40315;BME280;26021;45.640;11.302;2023-07-31T11:11:59;98472.59;;;27.28;73.00
40315;BME280;26021;45.640;11.302;2023-07-31T11:14:24;98514.63;;;27.71;73.73
40315;BME280;26021;45.640;11.302;2023-07-31T11:16:50;98416.50;;;27.34;73.45
40315;BME280;26021;45.640;11.302;2023-07-31T11:19:24;98492.19;;;27.83;72.51
40315;BME280;26021;45.640;11.302;2023-07-31T11:21:51;98516.91;;;28.39;73.01
40315;BME280;26021;45.640;11.302;2023-07-31T11:24:16;98505.69;;;27.98;72.05
40315;BME280;26021;45.640;11.302;2023-07-31T11:27:06;98511.81;;;27.95;72.79
40315;BME280;26021;45.640;11.302;2023-07-31T11:29:32;98489.44;;;27.83;72.25
40315;BME280;26021;45.640;11.302;2023-07-31T11:31:58;98496.13;;;27.77;73.44
40315;BME280;26021;45.640;11.302;2023-07-31T11:34:23;98474.22;;;27.72;73.54
40315;BME280;26021;45.640;11.302;2023-07-31T11:36:55;98488.41;;;27.79;77.24
40315;BME280;26021;45.640;11.302;2023-07-31T11:39:24;98318.56;;;26.68;73.37
40315;BME280;26021;45.640;11.302;2023-07-31T11:41:49;98494.88;;;27.45;76.74
40315;BME280;26021;45.640;11.302;2023-07-31T11:44:14;98463.31;;;27.24;77.03
40315;BME280;26021;45.640;11.302;2023-07-31T11:46:40;98494.06;;;27.02;77.51
40315;BME280;26021;45.640;11.302;2023-07-31T11:49:05;98494.88;;;27.03;78.19
40315;BME280;26021;45.640;11.302;2023-07-31T11:51:31;98483.16;;;27.40;77.07
40315;BME280;26021;45.640;11.302;2023-07-31T11:53:58;98479.69;;;27.53;74.53
40315;BME280;26021;45.640;11.302;2023-07-31T11:56:26;98487.16;;;27.47;74.19
40315;BME280;26021;45.640;11.302;2023-07-31T11:58:57;98492.03;;;27.32;75.45
40315;BME280;26021;45.640;11.302;2023-07-31T12:01:24;98483.06;;;27.26;75.49
40315;BME280;26021;45.640;11.302;2023-07-31T12:03:50;98425.53;;;26.92;79.64
40315;BME280;26021;45.640;11.302;2023-07-31T12:06:17;98468.34;;;27.17;79.26
40315;BME280;26021;45.640;11.302;2023-07-31T12:08:42;98485.63;;;27.17;80.19
40315;BME280;26021;45.640;11.302;2023-07-31T12:11:09;98481.31;;;27.11;82.32
40315;BME280;26021;45.640;11.302;2023-07-31T12:13:35;98442.94;;;26.82;83.67
40315;BME280;26021;45.640;11.302;2023-07-31T12:16:02;98467.78;;;27.39;82.56
40315;BME280;26021;45.640;11.302;2023-07-31T12:18:33;98396.47;;;26.91;82.60
40315;BME280;26021;45.640;11.302;2023-07-31T12:21:00;98468.13;;;27.13;82.91
40315;BME280;26021;45.640;11.302;2023-07-31T12:23:30;98459.97;;;27.27;84.13
40315;BME280;26021;45.640;11.302;2023-07-31T12:26:19;98454.25;;;27.23;79.30
40315;BME280;26021;45.640;11.302;2023-07-31T12:28:46;98460.78;;;27.28;80.61
40315;BME280;26021;45.640;11.302;2023-07-31T12:31:22;98397.66;;;26.85;81.52
40315;BME280;26021;45.640;11.302;2023-07-31T12:33:49;98434.88;;;27.15;78.29
40315;BME280;26021;45.640;11.302;2023-07-31T12:36:17;98447.09;;;27.04;77.89
40315;BME280;26021;45.640;11.302;2023-07-31T12:38:45;98443.47;;;26.84;79.04
40315;BME280;26021;45.640;11.302;2023-07-31T12:41:11;98413.94;;;26.76;76.83
40315;BME280;26021;45.640;11.302;2023-07-31T12:43:39;98439.50;;;26.96;80.11
40315;BME280;26021;45.640;11.302;2023-07-31T12:46:06;98437.00;;;26.99;76.15
40315;BME280;26021;45.640;11.302;2023-07-31T12:48:34;98417.16;;;27.07;74.95
40315;BME280;26021;45.640;11.302;2023-07-31T12:51:00;98414.72;;;27.25;74.31